createdAt,value
2018-05-01T00:00:39.946Z,1.20
2018-05-01T00:03:06.141Z,0.90
2018-05-01T00:05:32.297Z,1.10
2018-05-01T00:07:58.505Z,1.30
2018-05-01T00:10:24.674Z,1.33
2018-05-01T00:12:50.899Z,1.33
2018-05-01T00:15:17.085Z,1.33
2018-05-01T00:17:43.245Z,1.20
2018-05-01T00:20:09.441Z,1.40
2018-05-01T00:22:35.629Z,1.07
2018-05-01T00:25:01.813Z,1.80
2018-05-01T00:27:27.978Z,1.77
2018-05-01T00:29:54.897Z,1.00
2018-05-01T00:32:21.052Z,1.57
2018-05-01T00:34:47.977Z,1.30
2018-05-01T00:37:14.170Z,1.40
2018-05-01T00:39:40.405Z,0.93
2018-05-01T00:42:06.566Z,1.20
2018-05-01T00:44:33.550Z,1.57
2018-05-01T00:46:59.710Z,2.00
2018-05-01T00:49:25.898Z,1.10
2018-05-01T00:51:52.073Z,1.30
2018-05-01T00:54:18.343Z,0.90
2018-05-01T00:56:44.494Z,0.93
2018-05-01T00:59:10.656Z,1.17
2018-05-01T01:01:36.845Z,1.10
2018-05-01T01:04:03.034Z,1.20
2018-05-01T01:06:29.222Z,0.90
2018-05-01T01:08:55.389Z,1.40
2018-05-01T01:11:22.302Z,1.00
2018-05-01T01:13:48.461Z,0.90
2018-05-01T01:16:14.638Z,0.90
2018-05-01T01:18:40.813Z,0.80
2018-05-01T01:21:07.734Z,1.00
2018-05-01T01:23:33.921Z,0.70
2018-05-01T01:26:00.139Z,0.80
2018-05-01T01:28:26.288Z,0.90
2018-05-01T01:30:52.465Z,1.20
2018-05-01T01:33:18.661Z,1.20
2018-05-01T01:35:44.681Z,0.90
2018-05-01T01:38:10.665Z,1.17
2018-05-01T01:40:36.685Z,1.03
2018-05-01T01:43:02.671Z,1.10
2018-05-01T01:45:29.411Z,1.37
2018-05-01T01:47:56.160Z,1.00
2018-05-01T01:50:22.896Z,1.10
2018-05-01T01:52:48.911Z,1.00
2018-05-01T01:55:15.650Z,1.37
2018-05-01T01:57:41.658Z,1.40
2018-05-01T02:00:07.682Z,1.00
2018-05-01T02:02:33.689Z,1.00
2018-05-01T02:04:59.683Z,1.27
2018-05-01T02:07:25.688Z,1.00
2018-05-01T02:09:51.676Z,1.40
2018-05-01T02:12:17.690Z,0.93
2018-05-01T02:14:43.694Z,1.20
2018-05-01T02:17:09.702Z,0.93
2018-05-01T02:19:35.680Z,1.30
2018-05-01T02:22:02.426Z,1.20
2018-05-01T02:24:28.419Z,1.27
2018-05-01T02:26:54.413Z,1.03
2018-05-01T02:29:20.451Z,1.30
2018-05-01T02:31:46.447Z,1.07
2018-05-01T02:34:12.468Z,1.20
2018-05-01T02:36:38.470Z,1.20
2018-05-01T02:39:04.477Z,1.00
2018-05-01T02:41:31.201Z,1.40
2018-05-01T02:43:57.205Z,1.20
2018-05-01T02:46:23.198Z,1.17
2018-05-01T02:48:49.213Z,2.00
2018-05-01T02:51:15.201Z,1.30
2018-05-01T02:53:41.226Z,1.80
2018-05-01T02:56:07.993Z,1.77
2018-05-01T02:58:34.020Z,1.30
2018-05-01T03:01:00.023Z,1.57
2018-05-01T03:03:26.053Z,1.43
2018-05-01T03:05:52.045Z,1.30
2018-05-01T03:08:18.806Z,1.50
2018-05-01T03:10:44.800Z,1.73
2018-05-01T03:13:10.818Z,1.37
2018-05-01T03:15:36.812Z,1.67
2018-05-01T03:18:02.998Z,1.97
2018-05-01T03:20:29.927Z,2.00
2018-05-01T03:22:55.913Z,2.13
2018-05-01T03:25:21.924Z,1.93
2018-05-01T03:27:47.920Z,1.97
2018-05-01T03:30:13.927Z,2.13
2018-05-01T03:32:39.912Z,2.33
2018-05-01T03:35:05.924Z,2.40
2018-05-01T03:37:31.949Z,2.43
2018-05-01T03:39:57.969Z,2.57
2018-05-01T03:42:23.961Z,2.60
2018-05-01T03:44:49.995Z,2.80
2018-05-01T03:47:15.978Z,3.40
2018-05-01T03:49:42.726Z,3.40
2018-05-01T03:52:08.737Z,4.43
2018-05-01T03:54:35.485Z,3.70
2018-05-01T03:57:01.525Z,3.70
2018-05-01T03:59:27.558Z,4.70
2018-05-01T04:01:53.550Z,3.80
2018-05-01T04:04:19.541Z,3.87
2018-05-01T04:06:45.544Z,4.10
2018-05-01T04:09:11.545Z,3.77
2018-05-01T04:11:37.696Z,4.93
2018-05-01T04:14:03.750Z,4.27
2018-05-01T04:16:29.755Z,5.00
2018-05-01T04:18:55.745Z,4.77
2018-05-01T04:21:21.761Z,4.60
2018-05-01T04:23:47.744Z,4.63
2018-05-01T04:26:14.506Z,4.43
2018-05-01T04:28:40.514Z,4.53
2018-05-01T04:31:07.269Z,4.80
2018-05-01T04:33:33.293Z,4.73
2018-05-01T04:35:59.331Z,4.70
2018-05-01T04:38:25.317Z,4.83
2018-05-01T04:40:51.329Z,5.03
2018-05-01T04:43:18.077Z,4.60
2018-05-01T04:45:44.101Z,5.07
2018-05-01T04:48:10.856Z,4.87
2018-05-01T04:50:36.850Z,4.40
2018-05-01T04:53:02.872Z,4.50
2018-05-01T04:55:28.877Z,5.30
2018-05-01T04:57:54.900Z,5.70
2018-05-01T05:00:20.909Z,6.60
2018-05-01T05:02:46.922Z,6.60
2018-05-01T05:05:12.945Z,5.63
2018-05-01T05:07:38.962Z,6.37
2018-05-01T05:10:04.953Z,6.77
2018-05-01T05:12:30.962Z,6.00
2018-05-01T05:14:56.950Z,6.93
2018-05-01T05:17:22.956Z,8.00
2018-05-01T05:19:48.932Z,7.20
2018-05-01T05:22:14.949Z,7.70
2018-05-01T05:24:40.956Z,8.20
2018-05-01T05:27:06.964Z,8.17
2018-05-01T05:29:32.990Z,9.00
2018-05-01T05:31:58.997Z,8.57
2018-05-01T05:34:25.129Z,9.90
2018-05-01T05:36:51.165Z,9.27
2018-05-01T05:39:17.163Z,8.87
2018-05-01T05:41:43.161Z,10.17
2018-05-01T05:44:09.191Z,10.40
2018-05-01T05:46:35.188Z,8.73
2018-05-01T05:49:01.982Z,9.93
2018-05-01T05:51:27.977Z,10.60
2018-05-01T05:53:53.973Z,11.57
2018-05-01T05:56:19.966Z,9.87
2018-05-01T05:58:45.991Z,10.50
2018-05-01T06:01:12.042Z,9.90
2018-05-01T06:03:38.020Z,9.03
2018-05-01T06:06:04.021Z,9.30
2018-05-01T06:08:30.032Z,8.03
2018-05-01T06:10:56.029Z,8.73
2018-05-01T06:13:22.061Z,8.80
2018-05-01T06:15:48.066Z,8.37
2018-05-01T06:18:14.818Z,9.53
2018-05-01T06:20:40.826Z,10.53
2018-05-01T06:23:07.597Z,8.67
2018-05-01T06:25:33.590Z,7.40
2018-05-01T06:28:00.334Z,7.87
2018-05-01T06:30:27.081Z,8.67
2018-05-01T06:32:53.804Z,7.80
2018-05-01T06:35:20.576Z,8.13
2018-05-01T06:37:46.569Z,7.20
2018-05-01T06:40:13.319Z,7.37
2018-05-01T06:42:40.055Z,9.53
2018-05-01T06:45:06.113Z,9.60
2018-05-01T06:47:32.105Z,8.80
2018-05-01T06:49:58.867Z,7.87
2018-05-01T06:52:24.861Z,8.57
2018-05-01T06:54:51.610Z,9.57
2018-05-01T06:57:18.344Z,8.10
2018-05-01T06:59:44.360Z,10.00
2018-05-01T07:02:10.354Z,9.83
2018-05-01T07:04:36.454Z,8.50
2018-05-01T07:07:02.377Z,7.83
2018-05-01T07:09:28.374Z,8.63
2018-05-01T07:11:54.388Z,8.53
2018-05-01T07:14:20.381Z,8.90
2018-05-01T07:16:46.470Z,6.83
2018-05-01T07:19:12.465Z,9.57
2018-05-01T07:21:38.477Z,7.17
2018-05-01T07:24:04.481Z,8.67
2018-05-01T07:26:30.506Z,8.37
2018-05-01T07:28:57.240Z,8.10
2018-05-01T07:31:23.253Z,8.33
2018-05-01T07:33:49.261Z,7.97
2018-05-01T07:36:15.380Z,8.90
2018-05-01T07:38:41.377Z,8.80
2018-05-01T07:41:07.376Z,7.60
2018-05-01T07:43:33.361Z,8.03
2018-05-01T07:45:59.365Z,7.83
2018-05-01T07:48:25.366Z,8.13
2018-05-01T07:50:51.344Z,7.50
2018-05-01T07:53:17.375Z,7.13
2018-05-01T07:55:44.109Z,6.03
2018-05-01T07:58:10.130Z,7.17
2018-05-01T08:00:36.873Z,7.00
2018-05-01T08:03:02.882Z,6.93
2018-05-01T08:05:28.880Z,9.40
2018-05-01T08:07:54.895Z,6.60
2018-05-01T08:10:20.898Z,7.63
2018-05-01T08:12:46.900Z,6.40
2018-05-01T08:15:12.893Z,5.73
2018-05-01T08:17:38.910Z,5.80
2018-05-01T08:20:04.915Z,6.57
2018-05-01T08:22:31.022Z,7.00
2018-05-01T08:24:56.958Z,5.60
2018-05-01T08:27:22.958Z,6.80
2018-05-01T08:29:48.972Z,7.50
2018-05-01T08:32:14.976Z,6.60
2018-05-01T08:34:41.719Z,5.90
2018-05-01T08:37:07.728Z,4.90
2018-05-01T08:39:33.749Z,6.10
2018-05-01T08:41:59.733Z,5.50
2018-05-01T08:44:25.751Z,5.30
2018-05-01T08:46:51.763Z,4.67
2018-05-01T08:49:17.777Z,5.00
2018-05-01T08:51:43.780Z,5.10
2018-05-01T08:54:09.820Z,5.20
2018-05-01T08:56:35.822Z,5.67
2018-05-01T08:59:01.830Z,5.00
2018-05-01T09:01:28.574Z,4.33
2018-05-01T09:03:55.325Z,4.93
2018-05-01T09:06:22.170Z,4.83
2018-05-01T09:08:48.185Z,3.30
2018-05-01T09:11:14.197Z,5.50
2018-05-01T09:13:40.973Z,4.40
2018-05-01T09:16:06.973Z,5.00
2018-05-01T09:18:32.981Z,3.87
2018-05-01T09:20:59.727Z,4.43
2018-05-01T09:23:25.716Z,4.60
2018-05-01T09:25:51.741Z,4.70
2018-05-01T09:28:17.746Z,5.20
2018-05-01T09:30:43.791Z,4.40
2018-05-01T09:33:09.780Z,4.40
2018-05-01T09:35:35.816Z,5.10
2018-05-01T09:38:01.977Z,4.73
2018-05-01T09:40:28.006Z,4.80
2018-05-01T09:42:54.749Z,4.00
2018-05-01T09:45:21.520Z,7.20
2018-05-01T09:47:47.522Z,4.90
2018-05-01T09:50:13.544Z,5.27
2018-05-01T09:52:39.715Z,4.60
2018-05-01T09:55:05.902Z,4.70
2018-05-01T09:57:32.070Z,5.03
2018-05-01T09:59:58.269Z,4.83
2018-05-01T10:02:24.465Z,4.10
2018-05-01T10:04:51.381Z,4.93
2018-05-01T10:07:17.598Z,5.03
2018-05-01T10:09:43.794Z,3.50
2018-05-01T10:12:10.045Z,4.80
2018-05-01T10:14:36.227Z,3.90
2018-05-01T10:17:02.418Z,4.83
2018-05-01T10:19:28.647Z,5.30
2018-05-01T10:21:54.868Z,5.60
2018-05-01T10:24:21.056Z,5.50
2018-05-01T10:26:47.264Z,5.80
2018-05-01T10:29:13.473Z,5.47
2018-05-01T10:31:40.402Z,5.40
2018-05-01T10:34:06.586Z,5.37
2018-05-01T10:36:32.832Z,5.33
2018-05-01T10:38:59.100Z,4.83
2018-05-01T10:41:25.265Z,4.87
2018-05-01T10:43:51.446Z,6.10
2018-05-01T10:46:17.645Z,5.53
2018-05-01T10:48:43.846Z,4.50
2018-05-01T10:51:10.042Z,4.30
2018-05-01T10:53:36.289Z,4.70
2018-05-01T10:56:02.513Z,4.50
2018-05-01T10:58:28.716Z,5.10
2018-05-01T11:00:54.941Z,4.20
2018-05-01T11:03:21.103Z,5.00
2018-05-01T11:05:47.302Z,4.63
2018-05-01T11:08:14.217Z,4.57
2018-05-01T11:10:40.427Z,4.60
2018-05-01T11:13:06.635Z,5.63
2018-05-01T11:15:32.870Z,4.80
2018-05-01T11:17:59.085Z,5.10
2018-05-01T11:20:25.346Z,5.07
2018-05-01T11:22:51.511Z,4.77
2018-05-01T11:25:18.457Z,4.60
2018-05-01T11:27:44.713Z,4.20
2018-05-01T11:30:10.944Z,5.13
2018-05-01T11:32:37.141Z,5.03
2018-05-01T11:35:03.365Z,3.73
2018-05-01T11:37:29.567Z,4.20
2018-05-01T11:39:55.798Z,4.57
2018-05-01T11:42:22.017Z,4.37
2018-05-01T11:44:48.206Z,6.30
2018-05-01T11:47:14.409Z,4.30
2018-05-01T11:49:40.602Z,5.00
2018-05-01T11:52:06.793Z,4.60
2018-05-01T11:54:33.017Z,4.30
2018-05-01T11:56:59.200Z,3.67
2018-05-01T11:59:25.395Z,4.60
2018-05-01T12:01:51.600Z,4.90
2018-05-01T12:04:17.788Z,4.07
2018-05-01T12:06:43.957Z,4.10
2018-05-01T12:09:10.142Z,5.00
2018-05-01T12:11:36.332Z,5.30
2018-05-01T12:14:03.253Z,3.90
2018-05-01T12:16:29.502Z,4.33
2018-05-01T12:18:55.663Z,4.10
2018-05-01T12:21:21.858Z,4.23
2018-05-01T12:23:48.851Z,5.70
2018-05-01T12:26:15.070Z,5.17
2018-05-01T12:28:41.245Z,5.77
2018-05-01T12:31:08.317Z,3.87
2018-05-01T12:33:34.497Z,3.43
2018-05-01T12:36:00.729Z,3.97
2018-05-01T12:38:26.924Z,3.80
2018-05-01T12:40:53.125Z,4.10
2018-05-01T12:43:19.306Z,3.90
2018-05-01T12:45:45.496Z,3.80
2018-05-01T12:48:11.732Z,3.37
2018-05-01T12:50:37.904Z,2.90
2018-05-01T12:53:04.085Z,3.10
2018-05-01T12:55:30.278Z,2.97
2018-05-01T12:57:56.470Z,3.60
2018-05-01T13:00:22.680Z,2.37
2018-05-01T13:02:48.913Z,2.60
2018-05-01T13:05:15.153Z,1.60
2018-05-01T13:07:41.305Z,2.20
2018-05-01T13:10:07.476Z,2.50
2018-05-01T13:12:33.737Z,2.50
2018-05-01T13:14:59.875Z,2.50
2018-05-01T13:17:26.067Z,2.87
2018-05-01T13:19:52.233Z,2.20
2018-05-01T13:22:19.184Z,2.53
2018-05-01T13:24:46.166Z,2.10
2018-05-01T13:27:12.497Z,2.37
2018-05-01T13:29:38.707Z,2.70
2018-05-01T13:32:04.957Z,2.33
2018-05-01T13:34:31.159Z,3.03
2018-05-01T13:36:57.410Z,2.90
2018-05-01T13:39:23.597Z,3.63
2018-05-01T13:41:50.533Z,3.00
2018-05-01T13:44:17.450Z,3.47
2018-05-01T13:46:43.693Z,3.03
2018-05-01T13:49:09.885Z,2.80
2018-05-01T13:51:36.101Z,3.37
2018-05-01T13:54:02.283Z,3.60
2018-05-01T13:56:28.477Z,3.53
2018-05-01T13:58:54.663Z,3.20
2018-05-01T14:01:20.929Z,3.67
2018-05-01T14:03:47.134Z,3.57
2018-05-01T14:06:13.370Z,4.50
2018-05-01T14:08:39.557Z,3.97
2018-05-01T14:11:06.555Z,3.80
2018-05-01T14:13:32.793Z,3.83
2018-05-01T14:15:58.979Z,3.70
2018-05-01T14:18:25.205Z,3.60
2018-05-01T14:20:51.366Z,3.73
2018-05-01T14:23:17.568Z,3.67
2018-05-01T14:25:43.794Z,3.77
2018-05-01T14:28:10.736Z,3.10
2018-05-01T14:30:36.901Z,3.60
2018-05-01T14:33:03.114Z,3.10
2018-05-01T14:35:29.357Z,3.77
2018-05-01T14:37:55.562Z,4.00
2018-05-01T14:40:21.750Z,3.73
2018-05-01T14:42:47.944Z,4.17
2018-05-01T14:45:14.127Z,3.67
2018-05-01T14:47:40.340Z,4.97
2018-05-01T14:50:06.511Z,3.20
2018-05-01T14:52:32.707Z,4.50
2018-05-01T14:54:58.887Z,3.87
2018-05-01T14:57:25.121Z,3.60
2018-05-01T14:59:51.353Z,3.40
2018-05-01T15:02:18.296Z,3.60
2018-05-01T15:04:44.485Z,3.30
2018-05-01T15:07:10.669Z,4.20
2018-05-01T15:09:36.864Z,3.60
2018-05-01T15:12:03.057Z,3.90
2018-05-01T15:14:29.217Z,3.47
2018-05-01T15:16:55.410Z,3.37
2018-05-01T15:19:21.605Z,2.90
2018-05-01T15:21:48.697Z,3.07
2018-05-01T15:24:14.918Z,3.40
2018-05-01T15:26:41.094Z,3.40
2018-05-01T15:29:08.053Z,3.20
2018-05-01T15:31:34.251Z,3.07
2018-05-01T15:34:01.185Z,3.37
2018-05-01T15:36:27.385Z,3.17
2018-05-01T15:38:53.572Z,3.53
2018-05-01T15:41:19.760Z,2.67
2018-05-01T15:43:45.958Z,4.50
2018-05-01T15:46:12.857Z,3.80
2018-05-01T15:48:39.114Z,3.53
2018-05-01T15:51:05.308Z,3.10
2018-05-01T15:53:31.499Z,3.33
2018-05-01T15:55:57.679Z,3.60
2018-05-01T15:58:23.919Z,4.13
2018-05-01T16:00:50.092Z,3.90
2018-05-01T16:03:16.296Z,3.80
2018-05-01T16:05:42.471Z,3.70
2018-05-01T16:08:09.421Z,3.50
2018-05-01T16:10:35.599Z,3.23
2018-05-01T16:13:01.925Z,2.93
2018-05-01T16:15:28.201Z,3.00
2018-05-01T16:17:54.382Z,3.37
2018-05-01T16:20:20.550Z,3.53
2018-05-01T16:22:46.756Z,3.03
2018-05-01T16:25:12.943Z,3.90
2018-05-01T16:27:39.144Z,2.97
2018-05-01T16:30:05.317Z,3.63
2018-05-01T16:32:31.517Z,3.87
2018-05-01T16:34:57.742Z,3.77
2018-05-01T16:37:23.924Z,3.43
2018-05-01T16:39:50.114Z,2.97
2018-05-01T16:42:16.280Z,3.70
2018-05-01T16:44:42.470Z,3.20
2018-05-01T16:47:08.641Z,3.50
2018-05-01T16:49:35.562Z,2.67
2018-05-01T16:52:01.773Z,3.50
2018-05-01T16:54:27.957Z,2.77
2018-05-01T16:56:54.197Z,2.80
2018-05-01T16:59:20.321Z,3.23
2018-05-01T17:01:46.514Z,3.63
2018-05-01T17:04:13.429Z,3.03
2018-05-01T17:06:39.592Z,3.20
2018-05-01T17:09:05.909Z,3.40
2018-05-01T17:11:32.818Z,3.30
2018-05-01T17:13:59.017Z,3.27
2018-05-01T17:16:25.289Z,3.87
2018-05-01T17:18:51.453Z,3.80
2018-05-01T17:21:17.643Z,3.20
2018-05-01T17:23:43.830Z,3.53
2018-05-01T17:26:10.026Z,3.03
2018-05-01T17:28:36.257Z,2.90
2018-05-01T17:31:02.470Z,3.13
2018-05-01T17:33:28.650Z,3.90
2018-05-01T17:35:54.866Z,4.00
2018-05-01T17:38:21.033Z,4.07
2018-05-01T17:40:47.317Z,4.40
2018-05-01T17:43:13.401Z,3.80
2018-05-01T17:45:40.356Z,3.67
2018-05-01T17:48:07.286Z,3.80
2018-05-01T17:50:33.460Z,3.80
2018-05-01T17:52:59.618Z,3.87
2018-05-01T17:55:25.812Z,4.07
2018-05-01T17:57:51.992Z,3.97
2018-05-01T18:00:18.209Z,3.47
2018-05-01T18:02:44.399Z,3.30
2018-05-01T18:05:10.584Z,3.93
2018-05-01T18:07:36.747Z,3.17
2018-05-01T18:10:02.962Z,3.10
2018-05-01T18:12:29.183Z,2.90
2018-05-01T18:14:55.343Z,3.30
2018-05-01T18:17:21.563Z,3.57
2018-05-01T18:19:47.833Z,3.53
2018-05-01T18:22:14.754Z,3.17
2018-05-01T18:24:40.933Z,2.93
2018-05-01T18:27:07.121Z,3.30
2018-05-01T18:29:33.322Z,3.23
2018-05-01T18:31:59.538Z,3.33
2018-05-01T18:34:25.717Z,4.40
2018-05-01T18:36:52.657Z,2.90
2018-05-01T18:39:18.843Z,3.80
2018-05-01T18:41:45.027Z,3.27
2018-05-01T18:44:12.027Z,3.03
2018-05-01T18:46:38.189Z,3.37
2018-05-01T18:49:05.149Z,3.10
2018-05-01T18:51:31.328Z,3.97
2018-05-01T18:53:57.541Z,3.50
2018-05-01T18:56:23.717Z,2.90
2018-05-01T18:58:50.623Z,3.60
2018-05-01T19:01:16.821Z,3.13
2018-05-01T19:03:42.997Z,4.10
2018-05-01T19:06:09.241Z,3.60
2018-05-01T19:08:35.485Z,3.30
2018-05-01T19:11:01.736Z,4.10
2018-05-01T19:13:27.934Z,7.10
2018-05-01T19:15:54.189Z,8.87
2018-05-01T19:18:20.353Z,9.30
2018-05-01T19:20:46.606Z,9.80
2018-05-01T19:23:13.511Z,8.60
2018-05-01T19:25:39.751Z,8.90
2018-05-01T19:28:05.943Z,6.70
2018-05-01T19:30:32.138Z,6.67
2018-05-01T19:32:58.309Z,6.50
2018-05-01T19:35:24.505Z,6.40
2018-05-01T19:37:50.712Z,5.93
2018-05-01T19:40:17.664Z,8.03
2018-05-01T19:42:43.842Z,16.27
2018-05-01T19:45:10.040Z,19.13
2018-05-01T19:47:36.189Z,8.23
2018-05-01T19:50:02.417Z,7.37
2018-05-01T19:52:28.581Z,6.73
2018-05-01T19:54:54.789Z,8.40
2018-05-01T19:57:20.965Z,9.60
2018-05-01T19:59:47.149Z,8.30
2018-05-01T20:02:13.354Z,8.30
2018-05-01T20:04:39.718Z,9.00
2018-05-01T20:07:05.965Z,9.40
2018-05-01T20:09:32.218Z,8.73
2018-05-01T20:11:58.411Z,8.50
2018-05-01T20:14:25.310Z,7.83
2018-05-01T20:16:51.533Z,7.03
2018-05-01T20:19:17.711Z,8.87
2018-05-01T20:21:43.908Z,8.17
2018-05-01T20:24:10.082Z,7.43
2018-05-01T20:26:36.322Z,7.80
2018-05-01T20:29:02.500Z,8.23
2018-05-01T20:31:28.697Z,7.53
2018-05-01T20:33:54.914Z,10.40
2018-05-01T20:36:21.244Z,9.20
2018-05-01T20:38:47.435Z,8.90
2018-05-01T20:41:13.776Z,7.43
2018-05-01T20:43:39.960Z,7.40
2018-05-01T20:46:06.161Z,7.20
2018-05-01T20:48:32.321Z,7.10
2018-05-01T20:50:58.545Z,8.40
2018-05-01T20:53:24.722Z,9.87
2018-05-01T20:55:50.915Z,8.63
2018-05-01T20:58:17.856Z,8.73
2018-05-01T21:00:44.800Z,8.60
2018-05-01T21:03:11.729Z,8.20
2018-05-01T21:05:37.947Z,8.37
2018-05-01T21:08:04.163Z,7.80
2018-05-01T21:10:30.391Z,8.67
2018-05-01T21:12:56.561Z,7.33
2018-05-01T21:15:22.781Z,7.73
2018-05-01T21:17:49.686Z,7.87
2018-05-01T21:20:15.881Z,9.10
2018-05-01T21:22:42.085Z,7.87
2018-05-01T21:25:08.307Z,8.23
2018-05-01T21:27:35.227Z,8.23
2018-05-01T21:30:01.411Z,8.33
2018-05-01T21:32:27.592Z,7.73
2018-05-01T21:34:53.766Z,8.30
2018-05-01T21:37:19.985Z,9.33
2018-05-01T21:39:46.141Z,10.20
2018-05-01T21:42:12.324Z,8.70
2018-05-01T21:44:38.505Z,9.50
2018-05-01T21:47:04.914Z,9.40
2018-05-01T21:49:31.078Z,8.20
2018-05-01T21:51:57.255Z,9.77
2018-05-01T21:54:23.412Z,9.40
2018-05-01T21:56:49.613Z,9.57
2018-05-01T21:59:15.771Z,9.47
2018-05-01T22:01:41.984Z,10.00
2018-05-01T22:04:08.155Z,9.43
2018-05-01T22:06:34.329Z,10.23
2018-05-01T22:09:00.498Z,10.90
2018-05-01T22:11:27.433Z,10.00
2018-05-01T22:13:53.601Z,9.60
2018-05-01T22:16:19.793Z,10.07
2018-05-01T22:18:46.697Z,10.00
2018-05-01T22:21:12.910Z,10.40
2018-05-01T22:23:39.077Z,10.40
2018-05-01T22:26:05.273Z,9.30
2018-05-01T22:28:31.442Z,9.40
2018-05-01T22:30:57.614Z,10.90
2018-05-01T22:33:23.826Z,10.07
2018-05-01T22:35:50.029Z,9.83
2018-05-01T22:38:16.201Z,11.47
2018-05-01T22:40:42.401Z,9.20
2018-05-01T22:43:09.308Z,9.77
2018-05-01T22:45:35.473Z,9.63
2018-05-01T22:48:01.649Z,9.03
2018-05-01T22:50:27.815Z,8.97
2018-05-01T22:52:54.000Z,10.03
2018-05-01T22:55:20.161Z,9.10
2018-05-01T22:57:46.342Z,8.80
2018-05-01T23:00:15.349Z,10.67
2018-05-01T23:02:41.540Z,9.30
2018-05-01T23:05:07.721Z,8.67
2018-05-01T23:07:34.646Z,9.33
2018-05-01T23:10:00.812Z,9.57
2018-05-01T23:12:26.993Z,9.10
2018-05-01T23:14:53.172Z,8.70
2018-05-01T23:17:19.349Z,8.97
2018-05-01T23:19:45.563Z,8.57
2018-05-01T23:22:12.607Z,8.87
2018-05-01T23:24:38.778Z,8.30
2018-05-01T23:27:05.697Z,9.07
2018-05-01T23:29:31.880Z,8.87
2018-05-01T23:31:58.230Z,8.60
2018-05-01T23:34:24.406Z,8.67
2018-05-01T23:36:50.606Z,8.60
2018-05-01T23:39:16.766Z,8.23
2018-05-01T23:41:43.695Z,9.10
2018-05-01T23:44:10.619Z,9.30
2018-05-01T23:46:36.793Z,8.60
2018-05-01T23:49:02.997Z,8.40
2018-05-01T23:51:29.167Z,8.27
2018-05-01T23:53:55.357Z,8.43
2018-05-01T23:56:21.514Z,8.23
2018-05-01T23:58:47.697Z,8.07
